Time;durP1;ratioP1;P1;durP2;ratioP2;P2;SDS_P1;SDS_P2;PMS_P1;PMS_P2;Temp;Humidity;BMP_temperature;BMP_pressure;BME280_temperature;BME280_humidity;BME280_pressure;Samples;Min_cycle;Max_cycle;Signal;HPM_P1;HPM_P2
2021/09/06 00:02:02;;;;;;;1999.90;999.90;;;;;;;;;;5074955;28;20896;-86
2021/09/06 00:04:31;;;;;;;1999.90;999.90;;;;;;;;;;5074023;28;20441;-85
2021/09/06 00:06:58;;;;;;;1999.90;999.90;;;;;;;;;;5074280;28;20497;-85
2021/09/06 00:09:25;;;;;;;1999.90;999.90;;;;;;;;;;5069470;28;20935;-86
2021/09/06 00:11:53;;;;;;;1999.90;999.90;;;;;;;;;;5073719;28;20451;-86
2021/09/06 00:14:20;;;;;;;1999.90;999.90;;;;;;;;;;5073885;28;20549;-86
2021/09/06 00:16:47;;;;;;;1999.90;999.90;;;;;;;;;;5073667;28;20446;-85
2021/09/06 00:19:14;;;;;;;1999.90;999.90;;;;;;;;;;5073731;28;20455;-85
2021/09/06 00:21:43;;;;;;;1999.90;999.90;;;;;;;;;;5073334;28;20830;-86
2021/09/06 00:24:10;;;;;;;1999.90;999.90;;;;;;;;;;5068952;28;20534;-85
2021/09/06 00:26:38;;;;;;;1999.90;999.90;;;;;;;;;;5073346;28;20489;-87
2021/09/06 00:29:05;;;;;;;1999.90;999.90;;;;;;;;;;5073100;28;20516;-86
2021/09/06 00:31:32;;;;;;;1999.90;999.90;;;;;;;;;;5073314;28;20460;-84
2021/09/06 00:34:00;;;;;;;1999.90;999.90;;;;;;;;;;5073970;28;20469;-86
2021/09/06 00:36:27;;;;;;;1999.90;999.90;;;;;;;;;;5072879;28;20445;-87
2021/09/06 00:38:55;;;;;;;1999.90;999.90;;;;;;;;;;5054018;28;20456;-86
2021/09/06 00:41:24;;;;;;;1999.90;999.90;;;;;;;;;;5054069;28;20457;-85
2021/09/06 00:43:53;;;;;;;1999.90;999.90;;;;;;;;;;5073780;28;20530;-86
2021/09/06 00:46:20;;;;;;;1999.90;999.90;;;;;;;;;;5073737;28;21017;-86
2021/09/06 00:48:47;;;;;;;1999.90;999.90;;;;;;;;;;5072851;28;20453;-86
2021/09/06 00:51:14;;;;;;;1999.90;999.90;;;;;;;;;;5066433;28;20465;-86
2021/09/06 00:53:42;;;;;;;1999.90;999.90;;;;;;;;;;5054506;28;20934;-85
2021/09/06 00:56:11;;;;;;;1999.90;999.90;;;;;;;;;;5054063;28;20531;-86
2021/09/06 00:58:38;;;;;;;1999.90;999.90;;;;;;;;;;5071482;28;20972;-85
2021/09/06 01:01:05;;;;;;;1999.90;999.90;;;;;;;;;;5054830;28;20506;-86
2021/09/06 01:03:33;;;;;;;1999.90;999.90;;;;;;;;;;5055982;28;20477;-86
2021/09/06 01:06:00;;;;;;;1999.90;999.90;;;;;;;;;;5065153;28;20496;-86
2021/09/06 01:08:27;;;;;;;1999.90;999.90;;;;;;;;;;5080143;28;20456;-86
2021/09/06 01:10:55;;;;;;;1999.90;999.90;;;;;;;;;;5084196;28;20443;-86
2021/09/06 01:13:24;;;;;;;1999.90;999.90;;;;;;;;;;5083333;28;20477;-87
2021/09/06 01:15:51;;;;;;;1999.90;999.90;;;;;;;;;;5084274;28;20459;-86
2021/09/06 01:18:18;;;;;;;1999.90;999.90;;;;;;;;;;5082331;28;20447;-86
2021/09/06 01:20:45;;;;;;;1999.90;999.90;;;;;;;;;;5063891;28;20453;-86
2021/09/06 01:23:12;;;;;;;1999.90;999.90;;;;;;;;;;5063415;28;20476;-86
2021/09/06 01:25:39;;;;;;;1999.90;999.90;;;;;;;;;;5066292;28;20488;-86
2021/09/06 01:28:07;;;;;;;1999.90;999.90;;;;;;;;;;5064231;28;20979;-87
2021/09/06 01:30:35;;;;;;;1999.90;999.90;;;;;;;;;;5072761;28;20443;-86
2021/09/06 01:33:02;;;;;;;1999.90;999.90;;;;;;;;;;5066059;28;20529;-86
2021/09/06 01:35:29;;;;;;;1999.90;999.90;;;;;;;;;;5079251;28;20899;-87
2021/09/06 01:37:56;;;;;;;1999.90;999.90;;;;;;;;;;5071241;28;21047;-87
2021/09/06 01:40:25;;;;;;;1999.90;999.90;;;;;;;;;;5062957;28;20459;-85
2021/09/06 01:42:52;;;;;;;1999.90;999.90;;;;;;;;;;5061575;28;20464;-85
2021/09/06 01:45:21;;;;;;;1999.90;999.90;;;;;;;;;;5062174;28;20458;-86
2021/09/06 01:47:48;;;;;;;1999.90;999.90;;;;;;;;;;5073646;28;20548;-86
2021/09/06 01:50:15;;;;;;;1999.90;999.90;;;;;;;;;;5077582;28;20447;-86
2021/09/06 01:52:42;;;;;;;1999.90;999.90;;;;;;;;;;5064837;28;20476;-87
2021/09/06 01:55:10;;;;;;;1999.90;999.90;;;;;;;;;;5076044;28;20498;-86
2021/09/06 01:57:37;;;;;;;1999.90;999.90;;;;;;;;;;5073831;28;20462;-85
2021/09/06 02:00:04;;;;;;;1999.90;999.90;;;;;;;;;;5075655;28;20466;-84
2021/09/06 02:02:33;;;;;;;1999.90;999.90;;;;;;;;;;5057495;28;20481;-85
2021/09/06 02:05:00;;;;;;;1999.90;999.90;;;;;;;;;;5056282;28;20458;-85
2021/09/06 02:07:27;;;;;;;1999.90;999.90;;;;;;;;;;5061231;28;20517;-84
2021/09/06 02:09:54;;;;;;;1999.90;999.90;;;;;;;;;;5057555;28;20487;-85
2021/09/06 02:12:21;;;;;;;1999.90;999.90;;;;;;;;;;5067923;28;20470;-84
2021/09/06 02:14:48;;;;;;;1999.90;999.90;;;;;;;;;;5069872;28;20447;-84
2021/09/06 02:17:15;;;;;;;1999.90;999.90;;;;;;;;;;5058670;28;20447;-84
2021/09/06 02:19:44;;;;;;;1999.90;999.90;;;;;;;;;;5069180;28;20447;-86
2021/09/06 02:22:11;;;;;;;1999.90;999.90;;;;;;;;;;5076479;28;20899;-86
2021/09/06 02:24:38;;;;;;;1999.90;999.90;;;;;;;;;;5075018;28;20453;-86
2021/09/06 02:27:05;;;;;;;1999.90;999.90;;;;;;;;;;5080351;28;20481;-86
2021/09/06 02:29:32;;;;;;;1999.90;999.90;;;;;;;;;;5076318;28;21036;-86
2021/09/06 02:32:00;;;;;;;1999.90;999.90;;;;;;;;;;5081109;28;20451;-85
2021/09/06 02:34:27;;;;;;;1999.90;999.90;;;;;;;;;;5082359;28;20794;-86
2021/09/06 02:36:55;;;;;;;1999.90;999.90;;;;;;;;;;5075680;28;20460;-85
2021/09/06 02:39:22;;;;;;;1999.90;999.90;;;;;;;;;;5061663;28;20447;-85
2021/09/06 02:41:49;;;;;;;1999.90;999.90;;;;;;;;;;5069057;28;20460;-85
2021/09/06 02:44:16;;;;;;;1999.90;999.90;;;;;;;;;;5081593;28;20446;-86
2021/09/06 02:46:43;;;;;;;1999.90;999.90;;;;;;;;;;5076411;28;20475;-86
2021/09/06 02:49:10;;;;;;;1999.90;999.90;;;;;;;;;;5064970;28;20459;-84
2021/09/06 02:51:39;;;;;;;1999.90;999.90;;;;;;;;;;5075927;28;20465;-85
2021/09/06 02:54:08;;;;;;;1999.90;999.90;;;;;;;;;;5091881;28;20472;-86
2021/09/06 02:56:35;;;;;;;1999.90;999.90;;;;;;;;;;5083749;28;20450;-84
2021/09/06 02:59:02;;;;;;;1999.90;999.90;;;;;;;;;;5076029;28;20455;-85
2021/09/06 03:01:29;;;;;;;1999.90;999.90;;;;;;;;;;5075502;28;20454;-87
2021/09/06 03:03:56;;;;;;;1999.90;999.90;;;;;;;;;;5076050;28;20920;-87
2021/09/06 03:06:23;;;;;;;1999.90;999.90;;;;;;;;;;5063936;28;20480;-85
2021/09/06 03:08:51;;;;;;;1999.90;999.90;;;;;;;;;;5056027;28;20472;-87
2021/09/06 03:11:23;;;;;;;1999.90;999.90;;;;;;;;;;5067438;28;20458;-86
2021/09/06 03:13:50;;;;;;;1999.90;999.90;;;;;;;;;;5075010;28;21042;-85
2021/09/06 03:16:18;;;;;;;1999.90;999.90;;;;;;;;;;5055069;28;20451;-86
2021/09/06 03:18:45;;;;;;;1999.90;999.90;;;;;;;;;;5055902;28;20463;-84
2021/09/06 03:21:12;;;;;;;1999.90;999.90;;;;;;;;;;5073861;28;20448;-85
2021/09/06 03:23:39;;;;;;;1999.90;999.90;;;;;;;;;;5063493;28;20478;-86
2021/09/06 03:26:06;;;;;;;1999.90;999.90;;;;;;;;;;5075008;28;20457;-86
2021/09/06 03:28:34;;;;;;;1999.90;999.90;;;;;;;;;;5080789;28;20540;-88
2021/09/06 03:31:03;;;;;;;1999.90;999.90;;;;;;;;;;5078236;28;20455;-86
2021/09/06 03:33:30;;;;;;;1999.90;999.90;;;;;;;;;;5078368;28;20845;-86
2021/09/06 03:35:57;;;;;;;1999.90;999.90;;;;;;;;;;5060662;28;20451;-86
2021/09/06 03:38:24;;;;;;;1999.90;999.90;;;;;;;;;;5077034;28;20452;-85
2021/09/06 03:40:51;;;;;;;1999.90;999.90;;;;;;;;;;5062435;28;20979;-86
2021/09/06 03:43:18;;;;;;;1999.90;999.90;;;;;;;;;;5063386;28;20472;-86
2021/09/06 03:45:47;;;;;;;1999.90;999.90;;;;;;;;;;5060808;28;20462;-86
2021/09/06 03:48:14;;;;;;;1999.90;999.90;;;;;;;;;;5057121;28;20513;-86
2021/09/06 03:50:41;;;;;;;1999.90;999.90;;;;;;;;;;5055373;28;20450;-86
2021/09/06 03:53:08;;;;;;;1999.90;999.90;;;;;;;;;;5078927;28;20464;-87
2021/09/06 03:55:35;;;;;;;1999.90;999.90;;;;;;;;;;5092437;28;20457;-87
2021/09/06 03:58:02;;;;;;;1999.90;999.90;;;;;;;;;;5067750;28;20466;-86
2021/09/06 04:00:29;;;;;;;1999.90;999.90;;;;;;;;;;5037028;28;20447;-86
2021/09/06 04:02:58;;;;;;;1999.90;999.90;;;;;;;;;;5044889;28;20488;-86
2021/09/06 04:05:25;;;;;;;1999.90;999.90;;;;;;;;;;5064287;28;20462;-85
2021/09/06 04:07:52;;;;;;;1999.90;999.90;;;;;;;;;;5081702;28;20913;-86
2021/09/06 04:10:19;;;;;;;1999.90;999.90;;;;;;;;;;5083516;28;20447;-86
2021/09/06 04:12:46;;;;;;;1999.90;999.90;;;;;;;;;;5076859;28;20487;-87
2021/09/06 04:15:13;;;;;;;1999.90;999.90;;;;;;;;;;5074080;28;20832;-87
2021/09/06 04:17:42;;;;;;;1999.90;999.90;;;;;;;;;;5064064;28;20447;-86
2021/09/06 04:20:12;;;;;;;1999.90;999.90;;;;;;;;;;5070233;28;20466;-87
2021/09/06 04:22:39;;;;;;;1999.90;999.90;;;;;;;;;;5064290;28;20477;-86
2021/09/06 04:25:07;;;;;;;1999.90;999.90;;;;;;;;;;5062193;28;20536;-86
2021/09/06 04:27:34;;;;;;;1999.90;999.90;;;;;;;;;;5053761;28;20488;-86
2021/09/06 04:30:01;;;;;;;1999.90;999.90;;;;;;;;;;5060789;28;20462;-87
2021/09/06 04:32:28;;;;;;;1999.90;999.90;;;;;;;;;;5047760;28;20482;-87
2021/09/06 04:34:55;;;;;;;1999.90;999.90;;;;;;;;;;5042546;28;20459;-86
2021/09/06 04:37:24;;;;;;;1999.90;999.90;;;;;;;;;;5051251;28;20834;-85
2021/09/06 04:39:51;;;;;;;1999.90;999.90;;;;;;;;;;5049683;28;20537;-83
2021/09/06 04:42:18;;;;;;;1999.90;999.90;;;;;;;;;;5042774;28;20486;-84
2021/09/06 04:44:45;;;;;;;1999.90;999.90;;;;;;;;;;5043454;28;20459;-83
2021/09/06 04:47:14;;;;;;;1999.90;999.90;;;;;;;;;;5059130;28;20542;-85
2021/09/06 04:49:41;;;;;;;1999.90;999.90;;;;;;;;;;5070956;28;20460;-84
2021/09/06 04:52:09;;;;;;;1999.90;999.90;;;;;;;;;;5074060;28;20478;-83
2021/09/06 04:54:37;;;;;;;1999.90;999.90;;;;;;;;;;5062625;28;20464;-83
2021/09/06 04:57:04;;;;;;;1999.90;999.90;;;;;;;;;;5060836;28;20464;-83
2021/09/06 04:59:31;;;;;;;1999.90;999.90;;;;;;;;;;5069250;28;20460;-84
2021/09/06 05:01:58;;;;;;;1999.90;999.90;;;;;;;;;;5056861;28;20977;-83
2021/09/06 05:04:26;;;;;;;1999.90;999.90;;;;;;;;;;5056470;28;20453;-85
2021/09/06 05:06:55;;;;;;;1999.90;999.90;;;;;;;;;;5056069;28;20486;-82
2021/09/06 05:09:22;;;;;;;1999.90;999.90;;;;;;;;;;5073027;28;20449;-85
2021/09/06 05:11:51;;;;;;;1999.90;999.90;;;;;;;;;;5062612;28;20959;-86
2021/09/06 05:14:18;;;;;;;1999.90;999.90;;;;;;;;;;5041640;28;20462;-86
2021/09/06 05:16:48;;;;;;;1999.90;999.90;;;;;;;;;;5043332;28;21114;-85
2021/09/06 05:19:15;;;;;;;1999.90;999.90;;;;;;;;;;5061000;28;20966;-83
2021/09/06 05:21:42;;;;;;;1999.90;999.90;;;;;;;;;;5052003;28;20450;-84
2021/09/06 05:24:09;;;;;;;1999.90;999.90;;;;;;;;;;5055308;28;20447;-84
2021/09/06 05:26:36;;;;;;;1999.90;999.90;;;;;;;;;;5061501;28;20458;-87
2021/09/06 05:29:05;;;;;;;1999.90;999.90;;;;;;;;;;5071329;28;20537;-83
2021/09/06 05:31:32;;;;;;;1999.90;999.90;;;;;;;;;;5071895;28;20454;-84
2021/09/06 05:33:59;;;;;;;1999.90;999.90;;;;;;;;;;5059891;28;20471;-85
2021/09/06 05:36:26;;;;;;;1999.90;999.90;;;;;;;;;;5054036;28;21006;-84
2021/09/06 05:38:54;;;;;;;1999.90;999.90;;;;;;;;;;5052737;28;20534;-85
2021/09/06 05:41:21;;;;;;;1999.90;999.90;;;;;;;;;;5055936;28;20526;-84
2021/09/06 05:43:48;;;;;;;1999.90;999.90;;;;;;;;;;5057183;28;20467;-85
2021/09/06 05:46:17;;;;;;;1999.90;999.90;;;;;;;;;;5056801;28;20548;-86
2021/09/06 05:48:44;;;;;;;1999.90;999.90;;;;;;;;;;5071977;28;20947;-85
2021/09/06 05:51:11;;;;;;;1999.90;999.90;;;;;;;;;;5061309;28;20543;-85
2021/09/06 05:53:38;;;;;;;1999.90;999.90;;;;;;;;;;5073365;28;20487;-84
2021/09/06 05:56:06;;;;;;;1999.90;999.90;;;;;;;;;;5053886;28;20486;-86
2021/09/06 05:58:33;;;;;;;1999.90;999.90;;;;;;;;;;5058722;28;20527;-83
2021/09/06 06:01:01;;;;;;;1999.90;999.90;;;;;;;;;;5047481;28;20466;-84
2021/09/06 06:03:29;;;;;;;1999.90;999.90;;;;;;;;;;5048234;28;21070;-85
2021/09/06 06:05:56;;;;;;;1999.90;999.90;;;;;;;;;;5046923;28;20492;-84
2021/09/06 06:08:24;;;;;;;1999.90;999.90;;;;;;;;;;5057021;28;20559;-85
2021/09/06 06:10:51;;;;;;;1999.90;999.90;;;;;;;;;;5051082;28;21026;-85
2021/09/06 06:13:18;;;;;;;1999.90;999.90;;;;;;;;;;5046611;28;20485;-84
2021/09/06 06:15:45;;;;;;;1999.90;999.90;;;;;;;;;;5033422;28;20459;-85
2021/09/06 06:18:12;;;;;;;1999.90;999.90;;;;;;;;;;5044942;28;20463;-84
2021/09/06 06:20:41;;;;;;;1999.90;999.90;;;;;;;;;;5051990;28;20959;-83
2021/09/06 06:23:10;;;;;;;1999.90;999.90;;;;;;;;;;5052807;28;20988;-85
2021/09/06 06:25:38;;;;;;;1999.90;999.90;;;;;;;;;;5055358;28;20451;-84
2021/09/06 06:28:07;;;;;;;1999.90;999.90;;;;;;;;;;5055597;28;20487;-83
2021/09/06 06:30:35;;;;;;;1999.90;999.90;;;;;;;;;;5056669;28;20455;-83
2021/09/06 06:33:02;;;;;;;1999.90;999.90;;;;;;;;;;5056904;28;20485;-82
2021/09/06 06:35:29;;;;;;;1999.90;999.90;;;;;;;;;;5056123;28;20485;-85
2021/09/06 06:37:58;;;;;;;1999.90;999.90;;;;;;;;;;5055192;28;20439;-83
2021/09/06 06:40:25;;;;;;;1999.90;999.90;;;;;;;;;;5058483;28;20470;-83
2021/09/06 06:42:53;;;;;;;1999.90;999.90;;;;;;;;;;5056994;28;20475;-82
2021/09/06 06:45:20;;;;;;;1999.90;999.90;;;;;;;;;;5054928;28;20827;-87
2021/09/06 06:47:49;;;;;;;1999.90;999.90;;;;;;;;;;5054875;28;20524;-88
2021/09/06 06:50:17;;;;;;;1999.90;999.90;;;;;;;;;;5055676;28;20499;-87
2021/09/06 06:52:48;;;;;;;1999.90;999.90;;;;;;;;;;5055615;28;20480;-87
2021/09/06 06:55:20;;;;;;;1999.90;999.90;;;;;;;;;;5055694;28;20464;-86
2021/09/06 06:57:47;;;;;;;1999.90;999.90;;;;;;;;;;5055797;28;20459;-85
2021/09/06 07:00:15;;;;;;;1999.90;999.90;;;;;;;;;;5055832;28;20456;-85
2021/09/06 07:02:44;;;;;;;1999.90;999.90;;;;;;;;;;5055710;28;20477;-85
2021/09/06 07:05:12;;;;;;;1999.90;999.90;;;;;;;;;;5044234;28;20450;-85
2021/09/06 07:07:40;;;;;;;1999.90;999.90;;;;;;;;;;5045313;28;20857;-85
2021/09/06 07:10:08;;;;;;;1999.90;999.90;;;;;;;;;;5055125;28;20547;-85
2021/09/06 07:12:37;;;;;;;1999.90;999.90;;;;;;;;;;5055605;28;20551;-83
2021/09/06 07:15:10;;;;;;;1999.90;999.90;;;;;;;;;;5055977;28;20546;-83
2021/09/06 07:17:41;;;;;;;1999.90;999.90;;;;;;;;;;5055081;28;20889;-84
2021/09/06 07:20:09;;;;;;;1999.90;999.90;;;;;;;;;;5036245;28;20503;-84
2021/09/06 07:22:37;;;;;;;1999.90;999.90;;;;;;;;;;5046740;28;20485;-83
2021/09/06 07:25:05;;;;;;;1999.90;999.90;;;;;;;;;;5056070;28;20454;-83
2021/09/06 07:30:33;;;;;;;1999.90;999.90;;;;;;;;;;5037544;28;20437;-83
2021/09/06 07:33:05;;;;;;;1999.90;999.90;;;;;;;;;;5054813;28;20478;-85
2021/09/06 07:35:32;;;;;;;1999.90;999.90;;;;;;;;;;5058826;28;20459;-85
2021/09/06 07:37:59;;;;;;;1999.90;999.90;;;;;;;;;;5057913;28;20447;-85
2021/09/06 07:40:27;;;;;;;1999.90;999.90;;;;;;;;;;5064843;28;20863;-89
2021/09/06 07:42:55;;;;;;;1999.90;999.90;;;;;;;;;;5077247;28;20442;-83
2021/09/06 07:45:22;;;;;;;1999.90;999.90;;;;;;;;;;5053144;28;20434;-86
2021/09/06 07:47:49;;;;;;;1999.90;999.90;;;;;;;;;;5055133;28;20475;-84
2021/09/06 07:50:19;;;;;;;1999.90;999.90;;;;;;;;;;5057916;28;20537;-85
2021/09/06 07:52:46;;;;;;;1999.90;999.90;;;;;;;;;;5058077;28;20485;-84
2021/09/06 07:55:14;;;;;;;1999.90;999.90;;;;;;;;;;5059703;28;20523;-85
2021/09/06 07:57:41;;;;;;;1999.90;999.90;;;;;;;;;;5057645;28;20547;-86
2021/09/06 08:00:10;;;;;;;1999.90;999.90;;;;;;;;;;5056675;28;20459;-85
2021/09/06 08:02:38;;;;;;;1999.90;999.90;;;;;;;;;;5056010;28;20555;-85
2021/09/06 08:05:06;;;;;;;1999.90;999.90;;;;;;;;;;5058863;28;20461;-85
2021/09/06 08:07:33;;;;;;;1999.90;999.90;;;;;;;;;;5056363;28;20461;-84
2021/09/06 08:10:00;;;;;;;1999.90;999.90;;;;;;;;;;5056755;28;20460;-85
2021/09/06 08:12:28;;;;;;;1999.90;999.90;;;;;;;;;;5048724;28;20485;-85
2021/09/06 08:14:55;;;;;;;1999.90;999.90;;;;;;;;;;5055637;28;20451;-84
2021/09/06 08:17:23;;;;;;;1999.90;999.90;;;;;;;;;;5052763;28;20449;-85
2021/09/06 08:19:50;;;;;;;1999.90;999.90;;;;;;;;;;5052707;28;20454;-85
2021/09/06 08:22:18;;;;;;;1999.90;999.90;;;;;;;;;;5036469;28;20489;-84
2021/09/06 08:24:45;;;;;;;1999.90;999.90;;;;;;;;;;5055836;28;20453;-85
2021/09/06 08:27:12;;;;;;;1999.90;999.90;;;;;;;;;;5052252;28;20455;-85
2021/09/06 08:29:39;;;;;;;1999.90;999.90;;;;;;;;;;5052046;28;20481;-85
2021/09/06 08:32:07;;;;;;;1999.90;999.90;;;;;;;;;;5054034;28;20493;-84
2021/09/06 08:34:36;;;;;;;1999.90;999.90;;;;;;;;;;5046475;28;20468;-84
2021/09/06 08:37:03;;;;;;;1999.90;999.90;;;;;;;;;;5053767;28;20463;-85
2021/09/06 08:39:30;;;;;;;1999.90;999.90;;;;;;;;;;5049841;28;20444;-84
2021/09/06 08:41:58;;;;;;;1999.90;999.90;;;;;;;;;;5055784;28;20535;-83
2021/09/06 08:44:26;;;;;;;1999.90;999.90;;;;;;;;;;5053660;28;20439;-83
2021/09/06 08:46:53;;;;;;;1999.90;999.90;;;;;;;;;;5053495;28;20565;-83
2021/09/06 08:49:21;;;;;;;1999.90;999.90;;;;;;;;;;5054766;28;20589;-84
2021/09/06 08:51:49;;;;;;;1999.90;999.90;;;;;;;;;;5056164;28;20454;-85
2021/09/06 08:54:16;;;;;;;1999.90;999.90;;;;;;;;;;5055208;28;20455;-85
2021/09/06 08:56:43;;;;;;;1999.90;999.90;;;;;;;;;;5055104;28;20502;-85
2021/09/06 08:59:11;;;;;;;1999.90;999.90;;;;;;;;;;5054949;28;20848;-83
2021/09/06 09:01:39;;;;;;;1999.90;999.90;;;;;;;;;;5055411;28;20452;-85
2021/09/06 09:04:18;;;;;;;1999.90;999.90;;;;;;;;;;5054052;28;20476;-85
2021/09/06 09:06:49;;;;;;;1999.90;999.90;;;;;;;;;;5054620;28;20444;-83
2021/09/06 09:09:26;;;;;;;1999.90;999.90;;;;;;;;;;5055710;28;20518;-85
2021/09/06 09:12:04;;;;;;;1999.90;999.90;;;;;;;;;;5056424;28;20451;-83
2021/09/06 09:14:31;;;;;;;1999.90;999.90;;;;;;;;;;5034619;28;20456;-85
2021/09/06 09:16:59;;;;;;;1999.90;999.90;;;;;;;;;;5043039;28;20968;-86
2021/09/06 09:19:26;;;;;;;1999.90;999.90;;;;;;;;;;5056204;28;20444;-83
2021/09/06 09:21:55;;;;;;;1999.90;999.90;;;;;;;;;;5057404;28;20484;-85
2021/09/06 09:24:22;;;;;;;1999.90;999.90;;;;;;;;;;5056123;28;20452;-85
2021/09/06 09:26:54;;;;;;;1999.90;999.90;;;;;;;;;;5056659;28;20448;-85
2021/09/06 09:29:21;;;;;;;1999.90;999.90;;;;;;;;;;5059847;28;20479;-85
2021/09/06 09:31:49;;;;;;;1999.90;999.90;;;;;;;;;;5072661;28;20447;-83
2021/09/06 09:34:16;;;;;;;1999.90;999.90;;;;;;;;;;5078450;28;20958;-86
2021/09/06 09:36:43;;;;;;;1999.90;999.90;;;;;;;;;;5079235;28;20474;-87
2021/09/06 09:39:13;;;;;;;1999.90;999.90;;;;;;;;;;5077187;28;20435;-86
2021/09/06 09:41:40;;;;;;;1999.90;999.90;;;;;;;;;;5064934;28;20444;-84
2021/09/06 09:44:11;;;;;;;1999.90;999.90;;;;;;;;;;5061937;28;21033;-84
2021/09/06 09:46:39;;;;;;;1999.90;999.90;;;;;;;;;;5037729;28;20452;-84
2021/09/06 09:49:10;;;;;;;1999.90;999.90;;;;;;;;;;5063594;28;21006;-86
2021/09/06 09:51:37;;;;;;;1999.90;999.90;;;;;;;;;;5032704;28;20547;-83
2021/09/06 09:54:04;;;;;;;1999.90;999.90;;;;;;;;;;5062452;28;20845;-85
2021/09/06 09:56:33;;;;;;;1999.90;999.90;;;;;;;;;;5052098;28;20467;-84
2021/09/06 09:59:00;;;;;;;1999.90;999.90;;;;;;;;;;5064014;28;20524;-84
2021/09/06 10:01:29;;;;;;;1999.90;999.90;;;;;;;;;;5062291;28;20452;-85
2021/09/06 10:03:58;;;;;;;1999.90;999.90;;;;;;;;;;5062547;28;20490;-84
2021/09/06 10:06:25;;;;;;;1999.90;999.90;;;;;;;;;;5058790;28;20535;-85
2021/09/06 10:08:52;;;;;;;1999.90;999.90;;;;;;;;;;5058444;28;20479;-86
2021/09/06 10:11:19;;;;;;;1999.90;999.90;;;;;;;;;;5056226;28;20474;-86
2021/09/06 10:13:48;;;;;;;1999.90;999.90;;;;;;;;;;5061027;28;20468;-85
2021/09/06 10:16:15;;;;;;;1999.90;999.90;;;;;;;;;;5060018;28;20443;-86
2021/09/06 10:18:45;;;;;;;1999.90;999.90;;;;;;;;;;5053959;28;20470;-85
2021/09/06 10:21:13;;;;;;;1999.90;999.90;;;;;;;;;;5044754;28;20517;-88
2021/09/06 10:23:44;;;;;;;1999.90;999.90;;;;;;;;;;5059026;28;20525;-85
2021/09/06 10:26:11;;;;;;;1999.90;999.90;;;;;;;;;;5061594;28;20466;-86
2021/09/06 10:28:39;;;;;;;1999.90;999.90;;;;;;;;;;5069820;28;20499;-86
2021/09/06 10:31:18;;;;;;;1999.90;999.90;;;;;;;;;;5061948;28;20444;-86
2021/09/06 10:33:47;;;;;;;1999.90;999.90;;;;;;;;;;5050510;28;20482;-87
2021/09/06 10:36:19;;;;;;;1999.90;999.90;;;;;;;;;;5051943;28;20468;-84
2021/09/06 10:38:47;;;;;;;1999.90;999.90;;;;;;;;;;5054323;28;20852;-84
2021/09/06 10:41:16;;;;;;;1999.90;999.90;;;;;;;;;;5054535;28;20432;-83
2021/09/06 10:43:45;;;;;;;1999.90;999.90;;;;;;;;;;5054459;28;20471;-85
2021/09/06 10:46:14;;;;;;;1999.90;999.90;;;;;;;;;;5052661;28;20551;-82
2021/09/06 10:48:41;;;;;;;1999.90;999.90;;;;;;;;;;5055688;28;20494;-82
2021/09/06 10:51:09;;;;;;;1999.90;999.90;;;;;;;;;;5056024;28;20452;-84
2021/09/06 10:53:36;;;;;;;1999.90;999.90;;;;;;;;;;5054603;28;21013;-84
2021/09/06 10:56:04;;;;;;;1999.90;999.90;;;;;;;;;;5048490;28;20450;-82
2021/09/06 10:58:31;;;;;;;1999.90;999.90;;;;;;;;;;5057509;28;20456;-84
2021/09/06 11:00:59;;;;;;;1999.90;999.90;;;;;;;;;;5059008;28;20455;-83
2021/09/06 11:03:30;;;;;;;1999.90;999.90;;;;;;;;;;5058066;28;20467;-84
2021/09/06 11:05:58;;;;;;;1999.90;999.90;;;;;;;;;;5058882;28;20455;-84
2021/09/06 11:08:26;;;;;;;1999.90;999.90;;;;;;;;;;5058757;28;20454;-84
2021/09/06 11:10:53;;;;;;;1999.90;999.90;;;;;;;;;;5059742;28;20448;-83
2021/09/06 11:13:20;;;;;;;1999.90;999.90;;;;;;;;;;5058769;28;20471;-84
2021/09/06 11:15:47;;;;;;;1999.90;999.90;;;;;;;;;;5059679;28;20452;-83
2021/09/06 11:18:14;;;;;;;1999.90;999.90;;;;;;;;;;5059943;28;20456;-83
2021/09/06 11:20:45;;;;;;;1999.90;999.90;;;;;;;;;;5059071;28;21139;-82
2021/09/06 11:23:12;;;;;;;1999.90;999.90;;;;;;;;;;5058382;28;20478;-83
2021/09/06 11:25:41;;;;;;;1999.90;999.90;;;;;;;;;;5059581;28;20811;-83
2021/09/06 11:28:09;;;;;;;1999.90;999.90;;;;;;;;;;5059590;28;20448;-84
2021/09/06 11:30:37;;;;;;;1999.90;999.90;;;;;;;;;;5052495;28;20490;-83
2021/09/06 11:33:06;;;;;;;1999.90;999.90;;;;;;;;;;5058492;28;20470;-82
2021/09/06 11:35:33;;;;;;;1999.90;999.90;;;;;;;;;;5062146;28;20454;-83
2021/09/06 11:38:02;;;;;;;1999.90;999.90;;;;;;;;;;5066615;28;20544;-83
2021/09/06 11:40:30;;;;;;;1999.90;999.90;;;;;;;;;;5056356;28;20515;-84
2021/09/06 11:42:58;;;;;;;1999.90;999.90;;;;;;;;;;5053206;28;21041;-84
2021/09/06 11:45:26;;;;;;;1999.90;999.90;;;;;;;;;;5054527;28;20452;-84
2021/09/06 11:47:53;;;;;;;1999.90;999.90;;;;;;;;;;5056228;28;20524;-83
2021/09/06 11:50:21;;;;;;;1999.90;999.90;;;;;;;;;;5053548;28;20479;-82
2021/09/06 11:52:48;;;;;;;1999.90;999.90;;;;;;;;;;5047129;28;20506;-82
2021/09/06 11:55:18;;;;;;;1999.90;999.90;;;;;;;;;;5055062;28;20448;-82
2021/09/06 11:57:45;;;;;;;1999.90;999.90;;;;;;;;;;5055584;28;20947;-86
2021/09/06 12:00:13;;;;;;;1999.90;999.90;;;;;;;;;;5057040;28;20451;-83
2021/09/06 12:02:50;;;;;;;1999.90;999.90;;;;;;;;;;5058670;28;20468;-82
2021/09/06 12:05:17;;;;;;;1999.90;999.90;;;;;;;;;;5064502;28;20435;-83
2021/09/06 12:07:48;;;;;;;1999.90;999.90;;;;;;;;;;5055670;28;20552;-84
2021/09/06 12:10:27;;;;;;;1999.90;999.90;;;;;;;;;;5052534;28;20479;-83
2021/09/06 12:12:58;;;;;;;1999.90;999.90;;;;;;;;;;5108197;22;20498;-81
2021/09/06 12:15:26;;;;;;;1999.90;999.90;;;;;;;;;;5097620;28;20461;-81
2021/09/06 12:17:53;;;;;;;1999.90;999.90;;;;;;;;;;5094700;28;20466;-81
2021/09/06 12:20:27;;;;;;;1999.90;999.90;;;;;;;;;;5092120;28;20451;-81
2021/09/06 12:22:54;;;;;;;1999.90;999.90;;;;;;;;;;5084409;28;20474;-81
2021/09/06 12:25:25;;;;;;;1999.90;999.90;;;;;;;;;;5076534;28;20451;-81
2021/09/06 12:27:53;;;;;;;1999.90;999.90;;;;;;;;;;5079001;28;20458;-81
2021/09/06 12:30:22;;;;;;;1999.90;999.90;;;;;;;;;;5064210;28;20484;-81
2021/09/06 12:32:49;;;;;;;1999.90;999.90;;;;;;;;;;5061838;28;20475;-81
2021/09/06 12:35:16;;;;;;;1999.90;999.90;;;;;;;;;;5079655;28;20953;-81
2021/09/06 12:37:44;;;;;;;1999.90;999.90;;;;;;;;;;5078536;28;20451;-81
2021/09/06 12:40:12;;;;;;;1999.90;999.90;;;;;;;;;;5077863;28;20439;-80
2021/09/06 12:42:50;;;;;;;1999.90;999.90;;;;;;;;;;5158824;27;20586;-81
2021/09/06 12:45:17;;;;;;;1999.90;999.90;;;;;;;;;;5150282;27;20445;-81
2021/09/06 12:47:45;;;;;;;1999.90;999.90;;;;;;;;;;5151306;27;20512;-82
2021/09/06 12:50:12;;;;;;;1999.90;999.90;;;;;;;;;;5137061;27;20517;-81
2021/09/06 12:52:39;;;;;;;1999.90;999.90;;;;;;;;;;5144293;27;20537;-81
2021/09/06 12:55:07;;;;;;;1999.90;999.90;;;;;;;;;;5143351;28;20473;-82
2021/09/06 12:57:35;;;;;;;1999.90;999.90;;;;;;;;;;5141789;27;20532;-84
2021/09/06 13:00:04;;;;;;;1999.90;999.90;;;;;;;;;;5130257;27;20530;-82
2021/09/06 13:02:31;;;;;;;1999.90;999.90;;;;;;;;;;5125635;27;20548;-82
2021/09/06 13:04:58;;;;;;;1999.90;999.90;;;;;;;;;;5129775;27;20563;-81
2021/09/06 13:07:25;;;;;;;1999.90;999.90;;;;;;;;;;5137777;27;20451;-82
2021/09/06 13:09:52;;;;;;;1999.90;999.90;;;;;;;;;;5146950;27;20649;-81
2021/09/06 13:12:20;;;;;;;1999.90;999.90;;;;;;;;;;5131278;28;20433;-82
2021/09/06 13:14:47;;;;;;;1999.90;999.90;;;;;;;;;;5144857;27;20585;-81
2021/09/06 13:17:16;;;;;;;1999.90;999.90;;;;;;;;;;5134587;27;20448;-83
2021/09/06 13:19:43;;;;;;;1999.90;999.90;;;;;;;;;;5124417;27;20445;-81
2021/09/06 13:22:10;;;;;;;1999.90;999.90;;;;;;;;;;5119128;28;20481;-81
2021/09/06 13:24:37;;;;;;;1999.90;999.90;;;;;;;;;;5118033;27;20522;-83
2021/09/06 13:27:05;;;;;;;1999.90;999.90;;;;;;;;;;5118671;28;20536;-81
2021/09/06 13:29:32;;;;;;;1999.90;999.90;;;;;;;;;;5119489;27;20453;-83
2021/09/06 13:31:59;;;;;;;1999.90;999.90;;;;;;;;;;5137960;28;20445;-82
2021/09/06 13:34:28;;;;;;;1999.90;999.90;;;;;;;;;;5142546;27;20471;-82
2021/09/06 13:36:55;;;;;;;1999.90;999.90;;;;;;;;;;5136490;27;20551;-82
2021/09/06 13:39:22;;;;;;;1999.90;999.90;;;;;;;;;;5136377;27;20838;-81
2021/09/06 13:41:49;;;;;;;1999.90;999.90;;;;;;;;;;5136632;27;20492;-80
2021/09/06 13:44:17;;;;;;;1999.90;999.90;;;;;;;;;;5139801;27;20468;-81
2021/09/06 13:46:44;;;;;;;1999.90;999.90;;;;;;;;;;5139636;27;20463;-81
2021/09/06 13:49:11;;;;;;;1999.90;999.90;;;;;;;;;;5143650;27;20448;-81